Time;durP1;ratioP1;P1;durP2;ratioP2;P2;SDS_P1;SDS_P2;PMS_P1;PMS_P2;Temp;Humidity;BMP_temperature;BMP_pressure;BME280_temperature;BME280_humidity;BME280_pressure;Samples;Min_cycle;Max_cycle;Signal;HPM_P1;HPM_P2
2023/06/08 00:00:09;;;;;;;14.65;5.63;;;19.50;87.10;;;;;;5064068;28;20380;-92
2023/06/08 00:02:42;;;;;;;12.63;5.80;;;19.40;86.90;;;;;;5065145;28;20028;-93
2023/06/08 00:05:14;;;;;;;17.33;6.43;;;19.40;87.10;;;;;;5065357;28;20517;-92
2023/06/08 00:07:40;;;;;;;13.98;5.85;;;19.40;87.20;;;;;;5048548;28;20103;-89
2023/06/08 00:10:10;;;;;;;16.38;5.38;;;19.30;87.20;;;;;;5064089;28;20079;-90
2023/06/08 00:12:36;;;;;;;17.70;5.97;;;19.30;87.40;;;;;;5066879;28;20060;-89
2023/06/08 00:15:06;;;;;;;14.32;6.38;;;19.30;87.60;;;;;;5064924;28;20493;-89
2023/06/08 00:17:32;;;;;;;13.23;6.00;;;19.20;87.60;;;;;;5080605;28;20028;-90
2023/06/08 00:19:59;;;;;;;14.93;6.53;;;19.20;87.70;;;;;;5080282;28;20039;-90
2023/06/08 00:22:26;;;;;;;13.82;6.55;;;19.20;87.90;;;;;;5097377;28;20141;-89
2023/06/08 00:24:52;;;;;;;15.32;5.90;;;19.20;88.00;;;;;;5063687;28;20028;-93
2023/06/08 00:27:18;;;;;;;18.58;7.63;;;19.10;88.30;;;;;;5083845;28;20425;-93
2023/06/08 00:29:43;;;;;;;11.82;6.13;;;19.10;88.30;;;;;;5083083;28;20111;-93
2023/06/08 00:32:10;;;;;;;15.98;6.30;;;19.10;88.30;;;;;;5083002;28;20031;-92
2023/06/08 00:34:35;;;;;;;15.77;6.35;;;19.10;88.50;;;;;;5066540;28;20042;-93
2023/06/08 00:37:01;;;;;;;16.92;7.10;;;19.00;88.50;;;;;;5083415;28;20464;-93
2023/06/08 00:39:27;;;;;;;13.32;6.07;;;19.00;88.50;;;;;;5068794;28;20066;-93
2023/06/08 00:41:52;;;;;;;13.80;6.30;;;18.90;89.20;;;;;;5088025;28;20038;-90
2023/06/08 00:44:18;;;;;;;13.68;6.72;;;18.90;88.80;;;;;;5099567;28;20452;-90
2023/06/08 00:46:44;;;;;;;14.13;6.57;;;18.90;88.90;;;;;;5066035;28;20027;-90
2023/06/08 00:49:17;;;;;;;16.10;6.57;;;18.80;88.80;;;;;;5100012;28;20079;-93
2023/06/08 00:51:44;;;;;;;14.25;6.05;;;18.80;88.90;;;;;;5099483;28;20019;-92
2023/06/08 00:54:12;;;;;;;13.43;6.68;;;18.70;89.00;;;;;;5083446;28;20031;-94
2023/06/08 00:56:38;;;;;;;11.70;5.78;;;18.70;89.10;;;;;;5067294;28;20020;-95
2023/06/08 00:59:05;;;;;;;15.68;6.22;;;18.70;89.30;;;;;;5083573;28;20122;-94
2023/06/08 01:01:31;;;;;;;15.80;6.78;;;18.70;89.40;;;;;;5099529;28;20011;-94
2023/06/08 01:04:15;;;;;;;15.73;6.82;;;18.60;89.40;;;;;;5082384;28;20468;-94
2023/06/08 01:06:45;;;;;;;20.90;7.82;;;18.60;89.50;;;;;;5099110;28;20057;-94
2023/06/08 01:09:42;;;;;;;17.00;6.40;;;18.60;89.70;;;;;;5099001;28;20488;-94
2023/06/08 01:12:20;;;;;;;14.48;6.57;;;18.50;89.80;;;;;;5099026;28;20058;-93
2023/06/08 01:15:11;;;;;;;13.75;6.57;;;18.50;90.00;;;;;;5116980;28;20028;-94
2023/06/08 01:17:44;;;;;;;16.45;6.15;;;18.40;90.00;;;;;;5099057;28;20030;-94
2023/06/08 01:20:37;;;;;;;15.73;6.57;;;18.40;90.00;;;;;;5099696;28;20150;-94
2023/06/08 01:23:27;;;;;;;19.45;7.25;;;18.30;90.10;;;;;;5099612;28;20062;-94
2023/06/08 01:25:56;;;;;;;12.52;6.07;;;18.30;90.20;;;;;;5099557;28;20028;-94
2023/06/08 01:28:23;;;;;;;18.98;7.57;;;18.30;90.20;;;;;;5099315;28;20032;-93
2023/06/08 01:30:49;;;;;;;13.25;7.05;;;18.20;90.20;;;;;;5098965;28;20422;-93
2023/06/08 01:33:21;;;;;;;15.88;8.07;;;18.20;90.20;;;;;;5083194;28;20524;-93
2023/06/08 01:36:08;;;;;;;15.07;6.47;;;18.20;90.30;;;;;;5099618;28;20028;-94
2023/06/08 01:39:06;;;;;;;16.77;7.40;;;18.10;90.30;;;;;;5098927;28;20030;-93
2023/06/08 01:41:47;;;;;;;18.38;6.65;;;18.10;90.40;;;;;;5098732;28;20087;-93
2023/06/08 01:44:14;;;;;;;;;;;18.10;90.40;;;;;;5082652;28;20024;-93
2023/06/08 01:46:42;;;;;;;18.13;7.00;;;18.00;90.60;;;;;;5098784;28;19908;-94
2023/06/08 01:49:10;;;;;;;14.88;7.25;;;17.90;90.50;;;;;;5093192;28;20055;-94
2023/06/08 01:51:37;;;;;;;13.00;6.53;;;17.90;90.60;;;;;;5114354;28;20039;-94
2023/06/08 01:54:04;;;;;;;16.30;6.97;;;17.90;90.60;;;;;;5104960;28;20103;-92
2023/06/08 01:56:31;;;;;;;15.95;6.80;;;17.80;90.70;;;;;;5119636;28;20043;-94
2023/06/08 01:58:57;;;;;;;18.52;6.95;;;17.80;90.70;;;;;;5095649;28;20122;-93
2023/06/08 02:01:22;;;;;;;14.68;6.95;;;17.80;90.70;;;;;;5097108;28;20030;-94
2023/06/08 02:03:48;;;;;;;14.93;7.60;;;17.80;90.80;;;;;;5088062;28;20027;-94
2023/06/08 02:06:14;;;;;;;16.02;7.60;;;17.70;90.80;;;;;;5083032;28;20016;-96
2023/06/08 02:08:40;;;;;;;15.32;7.13;;;17.70;90.90;;;;;;5099282;28;20022;-96
2023/06/08 02:11:05;;;;;;;15.00;7.10;;;17.70;91.20;;;;;;5100277;28;20084;-94
2023/06/08 02:13:35;;;;;;;14.75;6.50;;;17.70;90.90;;;;;;5082964;28;20050;-96
2023/06/08 02:16:01;;;;;;;15.18;7.05;;;17.70;91.00;;;;;;5100337;28;20384;-95
2023/06/08 02:18:27;;;;;;;15.63;6.20;;;17.60;91.00;;;;;;5082355;28;20024;-96
2023/06/08 02:20:53;;;;;;;17.02;6.97;;;17.60;91.00;;;;;;5081170;28;20035;-96
2023/06/08 02:23:19;;;;;;;16.23;7.82;;;17.60;91.00;;;;;;5081885;28;20020;-94
2023/06/08 02:25:49;;;;;;;15.45;7.22;;;17.60;90.90;;;;;;5082540;28;20055;-96
2023/06/08 02:28:15;;;;;;;17.45;7.80;;;17.50;90.90;;;;;;5099683;28;20114;-95
2023/06/08 02:30:41;;;;;;;17.48;7.32;;;17.50;91.00;;;;;;5100139;28;20108;-96
2023/06/08 02:33:07;;;;;;;16.67;7.53;;;17.50;91.20;;;;;;5082750;28;20560;-96
2023/06/08 02:35:34;;;;;;;14.55;7.30;;;17.40;91.00;;;;;;5083898;28;20042;-94
2023/06/08 02:38:01;;;;;;;17.02;7.22;;;17.40;91.10;;;;;;5099951;28;20016;-93
2023/06/08 02:40:27;;;;;;;17.80;7.75;;;17.40;91.20;;;;;;5097842;28;20521;-93
2023/06/08 02:42:53;;;;;;;17.75;7.78;;;17.30;91.20;;;;;;5081778;28;20027;-92
2023/06/08 02:45:18;;;;;;;17.55;7.90;;;17.30;91.50;;;;;;5081267;28;20020;-93
2023/06/08 02:47:44;;;;;;;19.70;7.88;;;17.30;91.20;;;;;;5081275;28;20020;-94
2023/06/08 02:50:10;;;;;;;18.20;7.68;;;17.20;91.30;;;;;;5080942;28;20031;-93
2023/06/08 02:52:48;;;;;;;17.20;7.90;;;17.20;91.30;;;;;;5098536;28;20455;-94
2023/06/08 02:55:14;;;;;;;15.57;7.60;;;17.20;91.40;;;;;;5081731;28;20064;-94
2023/06/08 02:57:43;;;;;;;17.35;7.95;;;17.20;91.40;;;;;;5099888;28;20028;-95
2023/06/08 03:00:13;;;;;;;15.05;7.47;;;17.10;91.40;;;;;;5099632;28;20019;-95
2023/06/08 03:02:39;;;;;;;15.40;7.65;;;17.10;91.40;;;;;;5083929;28;20173;-96
2023/06/08 03:05:05;;;;;;;16.17;7.45;;;17.10;91.40;;;;;;5081670;28;20055;-94
2023/06/08 03:07:33;;;;;;;13.82;7.68;;;17.10;91.40;;;;;;5081503;28;20034;-96
2023/06/08 03:10:02;;;;;;;18.48;7.78;;;17.10;91.40;;;;;;5082411;28;20028;-96
2023/06/08 03:12:30;;;;;;;15.20;8.00;;;17.10;91.40;;;;;;5097184;28;20092;-94
2023/06/08 03:14:58;;;;;;;14.80;7.40;;;17.00;91.40;;;;;;5097065;28;20032;-93
2023/06/08 03:17:24;;;;;;;19.50;8.18;;;17.00;91.50;;;;;;5080484;28;20024;-94
2023/06/08 03:19:51;;;;;;;15.27;7.72;;;17.00;91.50;;;;;;5080149;28;20019;-94
2023/06/08 03:22:19;;;;;;;18.58;7.60;;;16.90;91.50;;;;;;5080136;28;20054;-94
2023/06/08 03:24:48;;;;;;;14.50;8.00;;;16.90;91.60;;;;;;5096980;28;20024;-93
2023/06/08 03:27:15;;;;;;;16.33;7.18;;;16.90;91.50;;;;;;5081324;28;20024;-91
2023/06/08 03:29:43;;;;;;;16.33;7.95;;;16.90;91.50;;;;;;5101997;28;20076;-93
2023/06/08 03:32:09;;;;;;;22.30;8.77;;;16.80;91.40;;;;;;5084613;28;20028;-92
2023/06/08 03:34:37;;;;;;;15.55;7.72;;;16.80;91.80;;;;;;5084118;28;20034;-93
2023/06/08 03:37:03;;;;;;;20.27;7.78;;;16.80;91.60;;;;;;5101656;28;20023;-93
2023/06/08 03:39:29;;;;;;;14.50;7.95;;;16.70;91.60;;;;;;5101848;28;20110;-93
2023/06/08 03:41:55;;;;;;;16.48;8.13;;;16.70;91.60;;;;;;5084731;28;20480;-92
2023/06/08 03:44:23;;;;;;;17.50;8.10;;;16.70;91.70;;;;;;5101769;28;20030;-90
2023/06/08 03:46:51;;;;;;;17.65;7.97;;;16.60;91.70;;;;;;5083505;28;20552;-90
2023/06/08 03:49:16;;;;;;;23.80;9.55;;;16.70;91.80;;;;;;5100592;28;20023;-90
2023/06/08 03:51:42;;;;;;;17.23;9.00;;;16.60;91.70;;;;;;5084329;28;20027;-89
2023/06/08 03:54:08;;;;;;;17.02;9.05;;;16.60;91.80;;;;;;5084724;28;20114;-90
2023/06/08 03:56:33;;;;;;;17.05;9.32;;;16.60;91.90;;;;;;5084128;28;20024;-90
2023/06/08 03:59:00;;;;;;;16.42;8.93;;;16.50;91.90;;;;;;5084061;28;20035;-90
2023/06/08 04:01:27;;;;;;;16.83;9.13;;;16.50;92.00;;;;;;5100390;28;20114;-92
2023/06/08 04:03:53;;;;;;;17.83;9.80;;;16.50;92.00;;;;;;5085324;28;20024;-93
2023/06/08 04:06:18;;;;;;;17.02;9.25;;;16.40;92.00;;;;;;5103215;28;20031;-92
2023/06/08 04:08:44;;;;;;;21.58;10.05;;;16.40;92.40;;;;;;5104212;28;20030;-90
2023/06/08 04:11:13;;;;;;;15.43;9.43;;;16.40;92.20;;;;;;5094620;28;20428;-92
2023/06/08 04:13:40;;;;;;;17.55;9.77;;;16.40;92.10;;;;;;5117188;28;20047;-92
2023/06/08 04:16:09;;;;;;;17.75;9.00;;;16.30;92.10;;;;;;5115993;28;20112;-91
2023/06/08 04:18:41;;;;;;;18.27;9.60;;;16.30;92.20;;;;;;5102397;28;20020;-94
2023/06/08 04:21:07;;;;;;;16.30;9.05;;;16.30;92.20;;;;;;5100940;28;20031;-90
2023/06/08 04:23:34;;;;;;;18.88;10.88;;;16.30;92.30;;;;;;5083718;28;20035;-92
2023/06/08 04:26:06;;;;;;;18.80;10.27;;;16.30;92.30;;;;;;5100303;28;20027;-92
2023/06/08 04:28:34;;;;;;;12.48;9.55;;;16.30;92.40;;;;;;5100051;28;20475;-92
2023/06/08 04:31:01;;;;;;;18.15;10.02;;;16.30;92.50;;;;;;5100442;28;20092;-92
2023/06/08 04:33:30;;;;;;;16.48;9.82;;;16.30;92.50;;;;;;5100390;28;20031;-91
2023/06/08 04:35:59;;;;;;;15.93;9.30;;;16.30;92.50;;;;;;5099802;28;20028;-92
2023/06/08 04:38:25;;;;;;;16.70;9.60;;;16.30;92.50;;;;;;5099753;28;20030;-92
2023/06/08 04:40:53;;;;;;;18.00;10.10;;;16.20;92.50;;;;;;5100219;28;20034;-94
2023/06/08 04:43:25;;;;;;;13.60;9.15;;;16.30;92.50;;;;;;5100687;28;20116;-93
2023/06/08 04:46:00;;;;;;;16.83;10.25;;;16.30;92.60;;;;;;5101267;28;20027;-94
2023/06/08 04:48:27;;;;;;;13.75;8.63;;;16.30;92.70;;;;;;5069799;28;20031;-92
2023/06/08 04:51:03;;;;;;;18.50;10.23;;;16.30;92.70;;;;;;5102490;28;20020;-94
2023/06/08 04:53:33;;;;;;;17.40;10.07;;;16.30;92.70;;;;;;5101177;28;20051;-89
2023/06/08 04:55:59;;;;;;;18.33;10.00;;;16.30;92.80;;;;;;5098999;28;20031;-91
2023/06/08 04:58:28;;;;;;;19.05;9.55;;;16.30;92.80;;;;;;5066178;28;20024;-91
2023/06/08 05:00:55;;;;;;;20.65;10.63;;;16.30;92.80;;;;;;5099715;28;20015;-90
2023/06/08 05:03:22;;;;;;;13.00;9.32;;;16.30;92.80;;;;;;5099211;28;20042;-91
2023/06/08 05:05:48;;;;;;;18.05;10.25;;;16.30;92.80;;;;;;5099152;28;20027;-91
2023/06/08 05:08:14;;;;;;;14.70;9.93;;;16.30;92.80;;;;;;5099628;28;20023;-92
2023/06/08 05:10:40;;;;;;;18.13;10.45;;;16.30;92.80;;;;;;5099733;28;20030;-92
2023/06/08 05:13:06;;;;;;;19.63;9.75;;;16.30;92.80;;;;;;5082173;28;20063;-92
2023/06/08 05:15:32;;;;;;;18.67;9.90;;;16.30;92.80;;;;;;5099110;28;20032;-92
2023/06/08 05:18:10;;;;;;;18.67;10.73;;;16.30;92.90;;;;;;5085249;28;20027;-92
2023/06/08 05:24:18;;;;;;;19.20;10.07;;;16.30;92.90;;;;;;5055266;28;20025;-91
2023/06/08 05:26:44;;;;;;;16.95;10.95;;;16.30;92.90;;;;;;5055779;28;20029;-89
2023/06/08 05:29:10;;;;;;;17.13;10.15;;;16.30;93.00;;;;;;5096525;28;20038;-91
2023/06/08 05:31:38;;;;;;;14.57;9.13;;;16.30;93.00;;;;;;5076100;28;20038;-90
2023/06/08 05:34:05;;;;;;;18.60;10.02;;;16.40;93.10;;;;;;5099106;28;20063;-90
2023/06/08 05:36:33;;;;;;;14.50;10.05;;;16.40;93.20;;;;;;5065378;28;20012;-90
2023/06/08 05:39:03;;;;;;;15.32;9.70;;;16.40;93.10;;;;;;5081908;28;20057;-90
2023/06/08 05:41:29;;;;;;;16.75;10.35;;;16.40;93.20;;;;;;5082754;28;20016;-94
2023/06/08 05:43:55;;;;;;;14.68;9.77;;;16.40;93.20;;;;;;5082634;28;20050;-92
2023/06/08 05:46:22;;;;;;;16.30;10.30;;;16.40;93.20;;;;;;5100811;28;20008;-91
2023/06/08 05:48:47;;;;;;;16.25;9.65;;;16.50;93.50;;;;;;5084128;28;20027;-90
2023/06/08 05:51:13;;;;;;;19.02;10.38;;;16.50;93.30;;;;;;5099962;28;20137;-91
2023/06/08 05:53:39;;;;;;;19.10;9.52;;;16.50;93.30;;;;;;5064843;28;20381;-92
2023/06/08 05:56:05;;;;;;;14.93;9.82;;;16.50;93.30;;;;;;5084240;28;20030;-91
2023/06/08 05:58:39;;;;;;;17.42;10.30;;;16.50;93.20;;;;;;5098974;28;20020;-92
2023/06/08 06:01:06;;;;;;;17.13;10.68;;;16.60;93.20;;;;;;5086922;28;20027;-93
2023/06/08 06:03:42;;;;;;;16.55;9.82;;;16.60;93.30;;;;;;5074713;28;20027;-93
2023/06/08 06:06:07;;;;;;;19.08;10.43;;;16.60;93.30;;;;;;5069847;28;20031;-94
2023/06/08 06:08:42;;;;;;;18.60;9.25;;;16.60;93.30;;;;;;5083813;28;20020;-91
2023/06/08 06:11:08;;;;;;;15.50;9.50;;;16.70;93.40;;;;;;5101170;28;20126;-92
2023/06/08 06:13:34;;;;;;;19.20;9.90;;;16.70;93.50;;;;;;5105979;28;20085;-93
2023/06/08 06:16:00;;;;;;;17.63;10.13;;;16.70;93.50;;;;;;5102355;28;20020;-92
2023/06/08 06:18:26;;;;;;;15.30;9.15;;;16.70;93.50;;;;;;5100752;28;20106;-95
2023/06/08 06:20:52;;;;;;;16.80;9.77;;;16.80;93.60;;;;;;5086304;28;20452;-95
2023/06/08 06:23:17;;;;;;;18.70;10.35;;;16.80;93.60;;;;;;5102167;28;20042;-91
2023/06/08 06:25:46;;;;;;;15.60;9.27;;;16.80;93.60;;;;;;5102288;28;20084;-93
2023/06/08 06:28:12;;;;;;;16.15;9.32;;;16.90;93.70;;;;;;5084085;28;20016;-93
2023/06/08 06:30:47;;;;;;;15.30;9.65;;;16.90;93.70;;;;;;5083541;28;20081;-91
2023/06/08 06:33:19;;;;;;;16.80;9.52;;;16.90;93.70;;;;;;5121316;28;20026;-93
2023/06/08 06:35:48;;;;;;;12.07;8.20;;;17.00;93.70;;;;;;5097547;28;20039;-92
2023/06/08 06:38:20;;;;;;;17.02;8.85;;;17.00;93.70;;;;;;5068893;28;20028;-93
2023/06/08 06:40:52;;;;;;;15.93;9.10;;;17.00;93.70;;;;;;5086329;28;20038;-93
2023/06/08 06:43:21;;;;;;;13.52;8.38;;;17.10;93.80;;;;;;5088867;28;20441;-92
2023/06/08 06:45:50;;;;;;;16.80;8.80;;;17.10;93.80;;;;;;5118385;28;20114;-92
2023/06/08 06:48:22;;;;;;;16.17;8.70;;;17.10;93.80;;;;;;5079170;28;20110;-93
2023/06/08 06:50:51;;;;;;;14.60;8.32;;;17.20;93.80;;;;;;5099271;28;20023;-93
2023/06/08 06:53:17;;;;;;;16.58;9.40;;;17.20;93.80;;;;;;5102016;28;20035;-90
2023/06/08 06:55:43;;;;;;;13.10;8.20;;;17.30;93.80;;;;;;5112008;28;20019;-93
2023/06/08 06:58:12;;;;;;;15.35;8.82;;;17.30;93.90;;;;;;5116516;28;20096;-92
2023/06/08 07:00:39;;;;;;;16.67;9.20;;;17.30;93.90;;;;;;5105643;28;20020;-94
2023/06/08 07:03:06;;;;;;;16.83;8.60;;;17.40;94.00;;;;;;5111898;28;20440;-93
2023/06/08 07:05:32;;;;;;;15.27;8.05;;;17.40;93.90;;;;;;5089538;28;20468;-91
2023/06/08 07:07:59;;;;;;;14.63;8.40;;;17.50;94.00;;;;;;5087036;28;20059;-89
2023/06/08 07:10:25;;;;;;;15.93;8.40;;;17.50;94.00;;;;;;5109859;28;20345;-94
2023/06/08 07:12:51;;;;;;;11.55;7.43;;;17.50;94.00;;;;;;5089357;28;20036;-93
2023/06/08 07:15:19;;;;;;;14.77;8.27;;;17.50;94.00;;;;;;5106027;28;20092;-93
2023/06/08 07:17:47;;;;;;;;;;;17.60;94.10;;;;;;5091370;28;20121;-93
2023/06/08 07:20:13;;;;;;;18.25;9.05;;;17.60;94.20;;;;;;5089947;28;19916;-94
2023/06/08 07:22:39;;;;;;;16.40;8.90;;;17.70;94.10;;;;;;5101361;27;20019;-92
2023/06/08 07:25:05;;;;;;;16.83;8.35;;;17.70;94.10;;;;;;5118360;28;20096;-91
2023/06/08 07:27:31;;;;;;;21.08;9.20;;;17.70;94.00;;;;;;5115404;28;20024;-90
2023/06/08 07:29:57;;;;;;;16.83;9.30;;;17.80;94.00;;;;;;5094454;28;20052;-90
2023/06/08 07:32:26;;;;;;;15.55;9.15;;;17.90;94.00;;;;;;5111371;28;20028;-93
2023/06/08 07:34:52;;;;;;;15.32;8.88;;;17.90;94.10;;;;;;5107176;28;20115;-93
2023/06/08 07:37:18;;;;;;;15.60;8.57;;;17.90;94.10;;;;;;5090186;28;20023;-92
2023/06/08 07:39:44;;;;;;;16.67;8.93;;;17.90;94.10;;;;;;5074954;28;20020;-92
2023/06/08 07:42:12;;;;;;;19.85;8.85;;;18.00;94.10;;;;;;5107659;28;20081;-93
2023/06/08 07:44:38;;;;;;;18.73;8.93;;;18.10;94.10;;;;;;5091174;28;20487;-92
2023/06/08 07:47:04;;;;;;;14.18;8.75;;;18.10;94.10;;;;;;5090126;28;20023;-92
2023/06/08 07:49:30;;;;;;;17.05;9.18;;;18.10;94.10;;;;;;5112411;28;20092;-94
2023/06/08 07:51:56;;;;;;;17.45;9.57;;;18.20;94.00;;;;;;5098624;28;20036;-94
2023/06/08 07:54:22;;;;;;;14.77;8.50;;;18.20;94.00;;;;;;5083268;28;20122;-92
2023/06/08 07:56:49;;;;;;;19.70;9.05;;;18.20;93.90;;;;;;5085383;28;20028;-92
2023/06/08 07:59:16;;;;;;;14.98;9.38;;;18.20;93.90;;;;;;5083699;28;20080;-92
2023/06/08 08:01:47;;;;;;;19.85;10.20;;;18.20;93.90;;;;;;5101315;28;20043;-94
2023/06/08 08:04:13;;;;;;;18.13;9.50;;;18.30;93.90;;;;;;5084792;28;20076;-94
2023/06/08 08:06:39;;;;;;;17.80;8.95;;;18.30;94.00;;;;;;5100026;28;20462;-94
2023/06/08 08:09:05;;;;;;;15.20;8.68;;;18.30;94.00;;;;;;5080986;28;20015;-93
2023/06/08 08:11:31;;;;;;;11.48;7.47;;;18.40;94.00;;;;;;5080752;28;20468;-91
2023/06/08 08:13:57;;;;;;;13.18;8.32;;;18.40;93.90;;;;;;5097750;28;20040;-90
2023/06/08 08:16:23;;;;;;;17.15;9.35;;;18.50;93.80;;;;;;5081145;28;20097;-91
2023/06/08 08:18:49;;;;;;;15.63;8.70;;;18.40;93.60;;;;;;5100610;28;20016;-92
2023/06/08 08:21:14;;;;;;;18.38;8.65;;;18.50;93.50;;;;;;5101295;28;20087;-91
2023/06/08 08:23:40;;;;;;;13.27;7.97;;;18.50;93.40;;;;;;5102182;28;20388;-90
2023/06/08 08:26:06;;;;;;;19.13;9.38;;;18.50;93.40;;;;;;5101367;28;20031;-91
2023/06/08 08:28:33;;;;;;;15.23;7.80;;;18.60;93.30;;;;;;5084733;28;20058;-93
2023/06/08 08:31:01;;;;;;;16.08;7.82;;;18.60;93.30;;;;;;5103147;28;20050;-94
2023/06/08 08:33:28;;;;;;;15.25;7.95;;;18.60;93.40;;;;;;5103009;28;20043;-93
2023/06/08 08:36:00;;;;;;;17.17;7.78;;;18.70;93.40;;;;;;5086935;28;20092;-94
2023/06/08 08:38:26;;;;;;;15.45;9.10;;;18.70;93.50;;;;;;5086201;28;20031;-90
2023/06/08 08:40:53;;;;;;;12.32;8.30;;;18.70;93.50;;;;;;5085163;28;20023;-94
2023/06/08 08:43:24;;;;;;;14.35;8.40;;;18.80;93.50;;;;;;5084705;28;20031;-94
2023/06/08 08:45:53;;;;;;;20.40;7.82;;;18.80;93.50;;;;;;5101031;28;20027;-91
2023/06/08 08:48:21;;;;;;;14.57;8.15;;;18.80;93.40;;;;;;5100825;28;20470;-91
2023/06/08 08:50:53;;;;;;;14.60;7.40;;;18.80;93.30;;;;;;5101494;28;20028;-91
2023/06/08 08:53:27;;;;;;;14.10;7.53;;;18.90;93.30;;;;;;5101082;28;20019;-91
2023/06/08 08:55:55;;;;;;;13.43;7.20;;;18.90;93.40;;;;;;5105266;28;20042;-94
2023/06/08 08:58:53;;;;;;;13.10;7.22;;;18.90;93.30;;;;;;5105955;28;20020;-95
2023/06/08 09:01:21;;;;;;;15.90;7.00;;;19.00;93.40;;;;;;5090447;28;20049;-90
2023/06/08 09:03:50;;;;;;;11.85;8.38;;;19.00;93.40;;;;;;5106322;28;20090;-93
2023/06/08 09:06:16;;;;;;;14.32;7.60;;;19.10;93.40;;;;;;5104933;28;20028;-93
2023/06/08 09:08:42;;;;;;;15.75;7.57;;;19.10;93.40;;;;;;5105213;28;20031;-93
2023/06/08 09:11:10;;;;;;;15.50;7.57;;;19.10;93.40;;;;;;5073694;28;20035;-92
2023/06/08 09:13:40;;;;;;;11.82;7.40;;;19.10;93.40;;;;;;5090721;28;20054;-93
2023/06/08 09:16:11;;;;;;;14.32;7.70;;;19.20;93.40;;;;;;5107156;28;20062;-92
2023/06/08 09:18:38;;;;;;;15.35;7.85;;;19.30;93.40;;;;;;5111945;28;20034;-93
2023/06/08 09:21:34;;;;;;;13.10;8.05;;;19.30;93.40;;;;;;5101220;28;20354;-93
2023/06/08 09:27:25;;;;;;;11.10;6.90;;;19.40;93.40;;;;;;5125111;28;20038;-93
2023/06/08 09:29:57;;;;;;;12.10;6.28;;;19.40;93.40;;;;;;5117471;28;20091;-95
2023/06/08 09:32:33;;;;;;;12.15;6.40;;;19.40;93.40;;;;;;5088986;28;20361;-94
2023/06/08 09:35:07;;;;;;;13.98;6.30;;;19.50;93.30;;;;;;5103664;28;20024;-96
2023/06/08 09:37:39;;;;;;;12.50;6.63;;;19.60;93.30;;;;;;5103539;28;20106;-94
2023/06/08 09:40:23;;;;;;;9.85;6.28;;;19.60;93.20;;;;;;5106336;28;20041;-94
2023/06/08 09:42:50;;;;;;;15.70;6.80;;;19.70;93.30;;;;;;5117166;28;20036;-94
2023/06/08 09:45:26;;;;;;;13.15;6.15;;;19.80;93.30;;;;;;5101042;28;20118;-95
2023/06/08 09:48:13;;;;;;;12.40;6.85;;;19.80;93.20;;;;;;5115479;28;20023;-95
2023/06/08 09:50:39;;;;;;;9.40;6.28;;;19.80;93.10;;;;;;5090626;28;20032;-95
2023/06/08 09:53:09;;;;;;;12.25;6.05;;;19.90;93.10;;;;;;5103731;28;20032;-96
2023/06/08 09:55:41;;;;;;;12.75;5.85;;;20.00;93.10;;;;;;5101741;28;20114;-95
2023/06/08 09:58:13;;;;;;;11.18;6.25;;;20.00;93.10;;;;;;5102173;28;20074;-94
2023/06/08 10:00:45;;;;;;;13.05;5.80;;;20.10;93.20;;;;;;5101893;28;20016;-95
2023/06/08 10:03:28;;;;;;;12.40;6.88;;;20.20;93.20;;;;;;5085964;28;20114;-95
2023/06/08 10:05:57;;;;;;;13.82;6.60;;;20.20;93.10;;;;;;5102451;28;20041;-96
2023/06/08 10:08:26;;;;;;;12.30;6.18;;;20.30;93.00;;;;;;5101948;28;20024;-91
2023/06/08 10:10:52;;;;;;;10.25;5.80;;;20.40;93.00;;;;;;5100005;28;20464;-91
2023/06/08 10:13:18;;;;;;;11.77;5.97;;;20.40;92.90;;;;;;5099786;28;20043;-92
2023/06/08 10:15:45;;;;;;;11.18;6.00;;;20.50;92.80;;;;;;5082538;28;20045;-91
2023/06/08 10:18:13;;;;;;;11.45;6.15;;;20.60;92.70;;;;;;5084027;28;20388;-92
2023/06/08 10:20:42;;;;;;;11.93;6.22;;;20.60;92.70;;;;;;5083410;28;20038;-91
2023/06/08 10:23:08;;;;;;;10.65;5.70;;;20.70;92.60;;;;;;5083095;28;20055;-92
2023/06/08 10:25:35;;;;;;;11.65;6.10;;;20.70;92.50;;;;;;5085003;28;20082;-96
2023/06/08 10:28:08;;;;;;;10.90;6.00;;;20.80;92.60;;;;;;5103027;28;19996;-94
2023/06/08 10:30:40;;;;;;;11.07;5.70;;;20.90;92.50;;;;;;5103404;28;20035;-94
2023/06/08 10:33:11;;;;;;;11.07;6.68;;;20.90;92.40;;;;;;5107444;28;20023;-94
2023/06/08 10:35:42;;;;;;;9.98;5.57;;;21.00;92.40;;;;;;5111315;28;20027;-94
2023/06/08 10:38:09;;;;;;;12.73;6.10;;;21.10;92.30;;;;;;5111505;28;20085;-94
2023/06/08 10:40:50;;;;;;;10.10;5.90;;;21.10;92.20;;;;;;5096397;28;20023;-94
2023/06/08 10:43:16;;;;;;;9.90;6.47;;;21.20;92.20;;;;;;5100321;28;20027;-93
2023/06/08 10:45:46;;;;;;;11.77;5.57;;;21.30;92.20;;;;;;5082845;28;20028;-94
2023/06/08 10:48:16;;;;;;;13.30;6.43;;;21.40;92.30;;;;;;5099226;28;20464;-94
2023/06/08 10:50:46;;;;;;;9.80;5.85;;;21.40;92.20;;;;;;5082340;28;20028;-93
2023/06/08 10:53:11;;;;;;;9.85;5.15;;;21.50;92.10;;;;;;5098842;28;20024;-92
2023/06/08 10:55:38;;;;;;;12.48;5.43;;;21.60;92.00;;;;;;5082674;28;20024;-94
2023/06/08 10:58:20;;;;;;;12.73;6.13;;;21.60;92.00;;;;;;5098454;22;20042;-87
2023/06/08 11:00:52;;;;;;;9.88;5.10;;;21.70;91.90;;;;;;5053488;28;20535;-87
2023/06/08 11:03:21;;;;;;;12.00;5.90;;;21.80;91.90;;;;;;5035874;28;20032;-86
2023/06/08 11:05:52;;;;;;;9.30;5.75;;;21.80;91.80;;;;;;5019213;28;20174;-86
2023/06/08 11:08:19;;;;;;;10.27;5.10;;;21.90;91.70;;;;;;5019824;28;20044;-87
2023/06/08 11:10:52;;;;;;;12.07;4.65;;;22.00;91.70;;;;;;5036599;28;20017;-86
2023/06/08 11:13:18;;;;;;;10.60;5.20;;;22.00;91.60;;;;;;5037167;28;20035;-87
2023/06/08 11:15:46;;;;;;;11.73;4.38;;;22.10;91.70;;;;;;5036700;28;20033;-87
2023/06/08 11:18:26;;;;;;;;;;;;;;;;;;;;;
2023/06/08 11:20:58;;;;;;;7.55;4.47;;;22.20;91.60;;;;;;5058391;28;20081;-90
2023/06/08 11:23:25;;;;;;;8.68;4.82;;;22.30;91.60;;;;;;5024419;28;20048;-91
2023/06/08 11:25:53;;;;;;;14.00;5.15;;;22.40;91.80;;;;;;5038341;28;20032;-92
2023/06/08 11:28:22;;;;;;;7.28;4.05;;;22.40;91.40;;;;;;5023000;28;20108;-91
2023/06/08 11:30:48;;;;;;;8.20;4.32;;;22.50;91.40;;;;;;5038612;28;20063;-91
2023/06/08 11:33:18;;;;;;;7.45;4.40;;;22.50;91.20;;;;;;5048389;28;20029;-93
2023/06/08 11:36:06;;;;;;;;;;;22.60;91.10;;;;;;5033271;28;20037;-91
2023/06/08 11:38:43;;;;;;;8.65;4.25;;;22.60;91.00;;;;;;5063455;28;19905;-94
2023/06/08 11:41:16;;;;;;;11.82;4.10;;;22.70;90.90;;;;;;5043435;28;20097;-93
2023/06/08 11:43:45;;;;;;;10.57;4.00;;;22.70;90.90;;;;;;5027087;28;20048;-93
2023/06/08 11:46:13;;;;;;;9.40;4.55;;;22.80;90.80;;;;;;5027674;28;20025;-92
2023/06/08 11:48:42;;;;;;;7.05;3.78;;;22.80;90.80;;;;;;5027053;28;20021;-93
2023/06/08 11:51:10;;;;;;;10.27;4.70;;;23.00;90.70;;;;;;5012285;28;20053;-94
2023/06/08 11:53:36;;;;;;;6.97;4.20;;;23.00;90.50;;;;;;5015585;28;20028;-93
2023/06/08 11:56:07;;;;;;;10.48;4.20;;;23.10;90.50;;;;;;5032018;28;20025;-91
2023/06/08 11:58:48;;;;;;;9.45;4.65;;;23.10;90.50;;;;;;5013138;28;20081;-92
2023/06/08 12:01:23;;;;;;;7.57;4.47;;;23.20;90.40;;;;;;5029024;28;20064;-92
2023/06/08 12:03:52;;;;;;;8.18;4.47;;;23.30;90.30;;;;;;5033624;28;20038;-93
2023/06/08 12:06:32;;;;;;;6.75;4.10;;;23.30;90.20;;;;;;5030223;28;20032;-93
2023/06/08 12:09:07;;;;;;;11.15;4.82;;;23.40;90.20;;;;;;5029373;28;20474;-93
2023/06/08 12:11:35;;;;;;;9.00;4.80;;;23.40;90.10;;;;;;5012547;28;20026;-92
2023/06/08 12:14:10;;;;;;;16.33;4.82;;;23.50;89.90;;;;;;5028211;28;20025;-92
2023/06/08 12:16:43;;;;;;;11.40;5.05;;;23.50;89.80;;;;;;5028638;28;20465;-93
2023/06/08 12:19:08;;;;;;;8.77;5.18;;;23.70;89.60;;;;;;5028655;28;20089;-94
2023/06/08 12:21:46;;;;;;;11.77;5.50;;;23.70;89.40;;;;;;5027958;28;20060;-93
2023/06/08 12:24:29;;;;;;;;;;;;;;;;;;;;;
2023/06/08 12:26:58;;;;;;;7.45;4.15;;;23.80;89.20;;;;;;5030078;28;20467;-92
2023/06/08 12:29:26;;;;;;;7.75;4.47;;;23.80;88.90;;;;;;5008754;28;20057;-92
2023/06/08 12:32:03;;;;;;;6.75;4.10;;;23.90;89.00;;;;;;5020914;28;20021;-91
2023/06/08 12:34:31;;;;;;;7.93;4.20;;;23.90;89.00;;;;;;5020395;28;20044;-93
2023/06/08 12:37:15;;;;;;;8.27;4.70;;;24.00;88.60;;;;;;5020261;28;20034;-92
2023/06/08 12:39:44;;;;;;;8.57;4.82;;;24.00;88.40;;;;;;5006238;28;20029;-92
2023/06/08 12:42:20;;;;;;;8.15;4.18;;;24.10;88.20;;;;;;5020954;28;20017;-91
2023/06/08 12:44:47;;;;;;;8.15;4.25;;;24.20;87.90;;;;;;5020366;28;20021;-92
2023/06/08 12:47:25;;;;;;;12.02;5.20;;;24.20;88.40;;;;;;5003493;28;20030;-93
2023/06/08 12:49:51;;;;;;;8.98;4.25;;;24.30;87.70;;;;;;5004161;28;20056;-93
2023/06/08 12:52:20;;;;;;;8.07;4.38;;;24.30;87.60;;;;;;5036787;28;20048;-93
2023/06/08 12:54:49;;;;;;;7.28;4.32;;;24.40;87.70;;;;;;5020322;28;20484;-92
2023/06/08 12:57:17;;;;;;;8.05;4.13;;;24.50;87.50;;;;;;5020683;28;20057;-94